createdAt,value
2022-11-25T00:01:08.954Z,4.08
2022-11-25T00:03:37.284Z,4.11
2022-11-25T00:06:12.980Z,4.13
2022-11-25T00:08:41.750Z,4.04
2022-11-25T00:11:12.437Z,4.12
2022-11-25T00:13:40.961Z,4.17
2022-11-25T00:16:11.331Z,4.12
2022-11-25T00:18:39.581Z,4.14
2022-11-25T00:21:08.648Z,4.08
2022-11-25T00:23:37.300Z,4.13
2022-11-25T00:26:11.394Z,4.85
2022-11-25T00:28:39.794Z,4.89
2022-11-25T00:31:09.305Z,4.78
2022-11-25T00:33:37.463Z,4.84
2022-11-25T00:36:06.998Z,4.89
2022-11-25T00:38:34.742Z,5.00
2022-11-25T00:41:20.018Z,4.87
2022-11-25T00:44:06.700Z,4.93
2022-11-25T00:46:34.368Z,4.92
2022-11-25T00:49:02.106Z,4.96
2022-11-25T00:51:29.924Z,5.04
2022-11-25T00:53:59.287Z,5.05
2022-11-25T00:56:27.146Z,5.08
2022-11-25T00:58:56.555Z,5.12
2022-11-25T01:01:24.731Z,4.79
2022-11-25T01:03:53.788Z,5.21
2022-11-25T01:06:22.581Z,5.06
2022-11-25T01:08:50.894Z,5.22
2022-11-25T01:11:20.900Z,5.23
2022-11-25T01:13:49.088Z,5.27
2022-11-25T01:16:20.385Z,5.34
2022-11-25T01:18:48.874Z,5.40
2022-11-25T01:21:18.271Z,5.23
2022-11-25T01:23:48.592Z,5.05
2022-11-25T01:26:17.813Z,5.02
2022-11-25T01:28:45.825Z,4.99
2022-11-25T01:31:16.970Z,5.06
2022-11-25T01:33:47.130Z,5.02
2022-11-25T01:36:17.044Z,4.98
2022-11-25T01:38:46.334Z,4.93
2022-11-25T01:41:15.637Z,4.88
2022-11-25T01:43:43.599Z,4.96
2022-11-25T01:46:22.050Z,5.02
2022-11-25T01:48:55.600Z,5.03
2022-11-25T01:51:29.352Z,4.98
2022-11-25T01:54:02.893Z,4.88
2022-11-25T01:56:34.660Z,4.96
2022-11-25T01:59:03.139Z,4.98
2022-11-25T02:01:32.221Z,5.32
2022-11-25T02:04:01.805Z,5.20
2022-11-25T02:06:36.410Z,5.09
2022-11-25T02:09:07.829Z,5.10
2022-11-25T02:11:39.993Z,4.98
2022-11-25T02:14:08.245Z,4.92
2022-11-25T02:16:36.739Z,4.97
2022-11-25T02:19:09.361Z,5.03
2022-11-25T02:21:44.985Z,4.98
2022-11-25T02:24:19.839Z,5.04
2022-11-25T02:26:49.721Z,5.03
2022-11-25T02:29:17.895Z,5.10
2022-11-25T02:31:45.998Z,4.91
2022-11-25T02:34:13.797Z,4.96
2022-11-25T02:36:41.601Z,5.17
2022-11-25T02:39:10.058Z,5.18
2022-11-25T02:41:42.029Z,5.18
2022-11-25T02:44:11.261Z,5.11
2022-11-25T02:46:39.066Z,4.95
2022-11-25T02:49:09.671Z,5.00
2022-11-25T02:51:39.083Z,4.84
2022-11-25T02:54:07.842Z,4.85
2022-11-25T02:56:36.844Z,4.91
2022-11-25T02:59:05.734Z,4.93
2022-11-25T03:01:36.676Z,5.05
2022-11-25T03:04:04.853Z,4.93
2022-11-25T03:06:33.312Z,4.79
2022-11-25T03:09:01.053Z,4.91
2022-11-25T03:11:43.031Z,4.59
2022-11-25T03:14:10.857Z,4.67
2022-11-25T03:16:40.017Z,4.76
2022-11-25T03:19:08.609Z,4.57
2022-11-25T03:21:36.480Z,4.62
2022-11-25T03:24:04.358Z,4.77
2022-11-25T03:26:32.083Z,4.68
2022-11-25T03:28:59.841Z,4.74
2022-11-25T03:31:27.593Z,4.86
2022-11-25T03:33:57.872Z,4.85
2022-11-25T03:36:25.655Z,4.93
2022-11-25T03:38:53.452Z,4.86
2022-11-25T03:41:21.265Z,4.70
2022-11-25T03:43:49.049Z,4.74
2022-11-25T03:46:16.917Z,4.54
2022-11-25T03:48:44.673Z,4.59
2022-11-25T03:51:13.928Z,4.45
2022-11-25T03:53:41.697Z,4.75
2022-11-25T03:56:09.845Z,4.71
2022-11-25T03:58:37.611Z,4.71
2022-11-25T04:01:06.202Z,4.68
2022-11-25T04:03:34.001Z,4.82
2022-11-25T04:06:01.891Z,4.80
2022-11-25T04:08:31.528Z,4.79
2022-11-25T04:10:59.316Z,4.77
2022-11-25T04:13:26.078Z,4.93
2022-11-25T04:15:53.774Z,4.92
2022-11-25T04:18:21.597Z,4.94
2022-11-25T04:20:49.426Z,4.99
2022-11-25T04:23:17.219Z,5.06
2022-11-25T04:25:46.479Z,5.00
2022-11-25T04:28:14.233Z,5.04
2022-11-25T04:30:42.106Z,5.03
2022-11-25T04:33:09.871Z,5.08
2022-11-25T04:35:37.618Z,5.13
2022-11-25T04:38:05.395Z,5.07
2022-11-25T04:40:33.350Z,5.08
2022-11-25T04:43:07.479Z,5.13
2022-11-25T04:45:58.642Z,5.09
2022-11-25T04:48:24.890Z,4.90
2022-11-25T04:50:52.648Z,4.95
2022-11-25T04:53:20.387Z,4.94
2022-11-25T04:55:48.098Z,5.04
2022-11-25T04:58:37.777Z,4.86
2022-11-25T05:01:04.650Z,4.90
2022-11-25T05:03:32.428Z,4.81
2022-11-25T05:06:00.219Z,4.85
2022-11-25T05:08:28.008Z,4.77
2022-11-25T05:10:55.878Z,4.75
2022-11-25T05:13:24.994Z,4.81
2022-11-25T05:15:52.865Z,4.47
2022-11-25T05:18:20.689Z,4.81
2022-11-25T05:20:48.414Z,4.79
2022-11-25T05:23:16.145Z,4.66
2022-11-25T05:25:43.977Z,4.64
2022-11-25T05:28:11.718Z,4.65
2022-11-25T05:30:40.963Z,4.77
2022-11-25T05:33:09.049Z,4.65
2022-11-25T05:35:36.938Z,4.75
2022-11-25T05:38:04.750Z,4.75
2022-11-25T05:40:32.686Z,4.82
2022-11-25T05:43:02.381Z,4.86
2022-11-25T05:45:30.143Z,4.87
2022-11-25T05:47:59.276Z,4.89
2022-11-25T05:50:26.999Z,4.88
2022-11-25T05:52:54.704Z,4.97
2022-11-25T05:55:22.467Z,4.78
2022-11-25T05:57:50.287Z,4.93
2022-11-25T06:00:23.482Z,4.86
2022-11-25T06:02:54.264Z,4.96
2022-11-25T06:05:23.714Z,4.94
2022-11-25T06:07:52.188Z,5.00
2022-11-25T06:10:20.481Z,5.03
2022-11-25T06:12:48.189Z,4.99
2022-11-25T06:15:16.021Z,4.90
2022-11-25T06:17:43.683Z,4.89
2022-11-25T06:20:12.251Z,4.89
2022-11-25T06:22:41.396Z,4.82
2022-11-25T06:25:10.105Z,4.80
2022-11-25T06:28:04.658Z,4.81
2022-11-25T06:30:26.677Z,4.84
2022-11-25T06:32:55.575Z,4.80
2022-11-25T06:35:23.377Z,4.69
2022-11-25T06:37:52.616Z,4.63
2022-11-25T06:40:20.421Z,4.77
2022-11-25T06:42:48.226Z,4.76
2022-11-25T06:45:16.209Z,4.70
2022-11-25T06:47:44.370Z,4.88
2022-11-25T06:50:12.600Z,4.77
2022-11-25T06:52:40.494Z,4.76
2022-11-25T06:55:10.311Z,4.61
2022-11-25T06:57:38.018Z,4.62
2022-11-25T07:00:06.974Z,4.51
2022-11-25T07:02:40.659Z,4.44
2022-11-25T07:05:11.023Z,4.54
2022-11-25T07:07:39.018Z,4.43
2022-11-25T07:10:09.810Z,4.53
2022-11-25T07:12:37.626Z,4.57
2022-11-25T07:15:06.262Z,4.57
2022-11-25T07:17:34.339Z,4.58
2022-11-25T07:20:02.240Z,4.66
2022-11-25T07:22:29.991Z,4.78
2022-11-25T07:24:57.819Z,4.70
2022-11-25T07:27:27.094Z,4.86
2022-11-25T07:30:19.160Z,4.85
2022-11-25T07:32:42.850Z,4.84
2022-11-25T07:35:10.726Z,4.85
2022-11-25T07:37:38.483Z,4.98
2022-11-25T07:40:07.541Z,5.08
2022-11-25T07:42:36.631Z,5.11
2022-11-25T07:45:04.775Z,5.20
2022-11-25T07:47:35.035Z,5.32
2022-11-25T07:50:02.837Z,5.39
2022-11-25T07:52:30.661Z,5.58
2022-11-25T07:54:58.686Z,5.48
2022-11-25T07:57:26.618Z,5.48
2022-11-25T07:59:55.937Z,5.50
2022-11-25T08:02:23.794Z,5.68
2022-11-25T08:04:51.655Z,5.70
2022-11-25T08:07:21.452Z,5.55
2022-11-25T08:09:49.213Z,5.11
2022-11-25T08:12:17.400Z,5.47
2022-11-25T08:14:45.140Z,5.46
2022-11-25T08:17:14.305Z,5.66
2022-11-25T08:19:42.027Z,5.93
2022-11-25T08:22:09.801Z,6.01
2022-11-25T08:24:37.584Z,6.33
2022-11-25T08:27:05.325Z,6.56
2022-11-25T08:29:33.148Z,6.75
2022-11-25T08:32:00.877Z,6.67
2022-11-25T08:34:29.950Z,6.64
2022-11-25T08:36:57.784Z,6.68
2022-11-25T08:42:13.482Z,7.14
2022-11-25T08:44:41.478Z,7.16
2022-11-25T08:47:10.728Z,7.39
2022-11-25T08:49:41.960Z,7.44
2022-11-25T08:52:10.951Z,7.65
2022-11-25T08:54:39.265Z,7.51
2022-11-25T08:57:06.998Z,7.61
2022-11-25T08:59:35.365Z,7.65
2022-11-25T09:02:03.954Z,7.80
2022-11-25T09:04:31.912Z,7.66
2022-11-25T09:07:01.201Z,7.86
2022-11-25T09:09:29.281Z,7.80
2022-11-25T09:11:57.317Z,7.92
2022-11-25T09:14:25.151Z,8.08
2022-11-25T09:16:52.935Z,8.11
2022-11-25T09:19:21.629Z,8.50
2022-11-25T09:21:49.891Z,8.58
2022-11-25T09:24:19.407Z,8.85
2022-11-25T09:26:47.438Z,8.89
2022-11-25T09:29:15.476Z,8.65
2022-11-25T09:31:43.352Z,8.54
2022-11-25T09:34:11.244Z,8.52
2022-11-25T09:36:39.073Z,8.36
2022-11-25T09:39:07.393Z,8.37
2022-11-25T09:42:12.596Z,8.28
2022-11-25T09:45:10.888Z,8.71
2022-11-25T09:47:52.919Z,8.96
2022-11-25T09:50:35.321Z,9.07
2022-11-25T09:53:12.116Z,9.07
2022-11-25T09:55:45.933Z,8.85
2022-11-25T09:58:25.072Z,8.80
2022-11-25T10:00:54.504Z,9.02
2022-11-25T10:03:32.076Z,9.16
2022-11-25T10:06:04.658Z,9.17
2022-11-25T10:08:39.279Z,9.05
2022-11-25T10:11:21.675Z,8.93
2022-11-25T10:13:56.000Z,8.82
2022-11-25T10:16:33.909Z,8.84
2022-11-25T10:19:04.034Z,8.82
2022-11-25T10:21:32.016Z,8.97
2022-11-25T10:24:00.097Z,9.00
2022-11-25T10:26:32.089Z,8.99
2022-11-25T10:29:21.797Z,8.86
2022-11-25T10:31:52.931Z,8.89
2022-11-25T10:34:28.592Z,8.94
2022-11-25T10:36:59.827Z,9.02
2022-11-25T10:39:31.732Z,8.92
2022-11-25T10:42:04.692Z,8.88
2022-11-25T10:44:36.127Z,8.88
2022-11-25T10:47:34.505Z,8.77
2022-11-25T10:50:14.804Z,8.71
2022-11-25T10:52:49.228Z,8.63
2022-11-25T10:55:19.003Z,8.52
2022-11-25T10:57:46.956Z,8.44
2022-11-25T11:00:34.793Z,8.61
2022-11-25T11:03:15.120Z,8.87
2022-11-25T11:05:48.788Z,8.92
2022-11-25T11:08:23.038Z,8.99
2022-11-25T11:11:15.483Z,8.75
2022-11-25T11:13:43.224Z,9.35
2022-11-25T11:16:30.781Z,9.32
2022-11-25T11:18:59.450Z,9.34
2022-11-25T11:21:32.423Z,9.53
2022-11-25T11:24:01.708Z,9.56
2022-11-25T11:26:31.409Z,9.64
2022-11-25T11:29:02.005Z,9.79
2022-11-25T11:31:36.035Z,9.73
2022-11-25T11:34:28.579Z,9.72
2022-11-25T11:37:01.929Z,9.85
2022-11-25T11:39:47.035Z,10.02
2022-11-25T11:42:22.875Z,10.38
2022-11-25T11:45:04.452Z,10.32
2022-11-25T11:47:40.624Z,10.41
2022-11-25T11:50:28.408Z,10.53
2022-11-25T11:53:07.598Z,10.72
2022-11-25T11:56:18.824Z,10.74
2022-11-25T11:58:55.128Z,10.55
2022-11-25T12:01:39.818Z,10.52
2022-11-25T12:04:20.805Z,10.46
2022-11-25T12:07:03.736Z,10.46
2022-11-25T12:09:35.613Z,10.63
2022-11-25T12:12:07.902Z,10.62
2022-11-25T12:14:43.532Z,10.53
2022-11-25T12:17:18.927Z,10.53
2022-11-25T12:19:57.833Z,9.98
2022-11-25T12:22:31.722Z,10.37
2022-11-25T12:25:09.040Z,10.38
2022-11-25T12:27:42.666Z,10.20
2022-11-25T12:30:14.957Z,10.26
2022-11-25T12:32:54.196Z,10.50
2022-11-25T12:35:32.403Z,10.63
2022-11-25T12:38:06.441Z,10.51
2022-11-25T12:40:42.730Z,10.30
2022-11-25T12:43:25.280Z,10.31
2022-11-25T12:46:01.932Z,10.34
2022-11-25T12:48:29.843Z,10.29
2022-11-25T12:51:07.943Z,10.11
2022-11-25T12:53:44.760Z,10.33
2022-11-25T12:56:22.671Z,10.25
2022-11-25T12:59:00.758Z,10.27
2022-11-25T13:01:58.039Z,9.96
2022-11-25T13:05:18.503Z,10.06
2022-11-25T13:08:01.497Z,9.92
2022-11-25T13:10:54.507Z,9.88
2022-11-25T13:13:47.190Z,9.78
2022-11-25T13:16:16.998Z,9.75
2022-11-25T13:18:46.498Z,9.28
2022-11-25T13:21:16.092Z,9.47
2022-11-25T13:23:52.112Z,9.33
2022-11-25T13:27:02.427Z,9.26
2022-11-25T13:30:03.788Z,9.07
2022-11-25T13:32:33.828Z,9.15
2022-11-25T13:35:40.939Z,9.15
2022-11-25T13:38:30.882Z,9.01
2022-11-25T13:41:01.625Z,9.02
2022-11-25T13:43:30.135Z,8.91
2022-11-25T13:45:58.202Z,8.98
2022-11-25T13:48:28.788Z,8.99
2022-11-25T13:51:16.413Z,8.97
2022-11-25T13:53:52.666Z,8.93
2022-11-25T13:56:29.783Z,8.95
2022-11-25T13:59:34.942Z,9.02
2022-11-25T14:02:34.550Z,9.04
2022-11-25T14:05:16.937Z,8.93
2022-11-25T14:07:48.014Z,8.88
2022-11-25T14:10:28.449Z,8.82
2022-11-25T14:13:10.223Z,8.75
2022-11-25T14:15:55.946Z,8.67
2022-11-25T14:19:28.114Z,8.73
2022-11-25T14:21:51.819Z,8.74
2022-11-25T14:24:30.499Z,8.81
2022-11-25T14:26:59.591Z,8.82
2022-11-25T14:29:38.136Z,8.83
2022-11-25T14:32:11.199Z,8.90
2022-11-25T14:34:42.228Z,8.90
2022-11-25T14:37:15.859Z,8.89
2022-11-25T14:39:50.443Z,8.99
2022-11-25T14:42:22.211Z,8.97
2022-11-25T14:44:55.809Z,8.99
2022-11-25T14:47:24.803Z,9.00
2022-11-25T14:52:43.983Z,9.03
2022-11-25T14:55:12.874Z,9.06
2022-11-25T14:57:45.059Z,8.97
2022-11-25T15:00:17.571Z,9.14
2022-11-25T15:02:55.474Z,9.01
2022-11-25T15:05:26.284Z,9.03
2022-11-25T15:08:00.864Z,8.98
2022-11-25T15:10:42.282Z,8.96
2022-11-25T15:13:24.871Z,8.95
2022-11-25T15:15:55.880Z,8.61
2022-11-25T15:18:26.028Z,8.51
2022-11-25T15:20:58.639Z,8.57
2022-11-25T15:23:31.985Z,8.48
2022-11-25T15:26:01.124Z,8.45
2022-11-25T15:28:34.627Z,8.43
2022-11-25T15:31:10.106Z,8.23
2022-11-25T15:33:38.782Z,8.32
2022-11-25T15:36:07.144Z,8.20
2022-11-25T15:38:42.038Z,8.28
2022-11-25T15:41:20.716Z,8.20
2022-11-25T15:43:51.019Z,8.08
2022-11-25T15:46:20.388Z,8.03
2022-11-25T15:48:50.259Z,8.07
2022-11-25T15:51:29.812Z,8.00
2022-11-25T15:54:01.673Z,8.03
2022-11-25T15:56:29.930Z,7.97
2022-11-25T15:59:01.711Z,7.82
2022-11-25T16:01:31.698Z,7.82
2022-11-25T16:04:20.969Z,7.77
2022-11-25T16:06:56.738Z,7.69
2022-11-25T16:09:28.675Z,7.60
2022-11-25T16:12:06.099Z,7.49
2022-11-25T16:14:37.651Z,7.34
2022-11-25T16:17:12.335Z,7.14
2022-11-25T16:19:42.692Z,7.09
2022-11-25T16:22:15.075Z,6.95
2022-11-25T16:24:57.256Z,6.97
2022-11-25T16:27:30.246Z,6.78
2022-11-25T16:30:08.188Z,6.80
2022-11-25T16:32:37.441Z,6.74
2022-11-25T16:35:14.988Z,6.52
2022-11-25T16:37:48.558Z,6.67
2022-11-25T16:40:18.621Z,6.68
2022-11-25T16:42:49.486Z,6.68
2022-11-25T16:45:20.475Z,6.61
2022-11-25T16:47:49.618Z,6.64
2022-11-25T16:50:19.152Z,6.69
2022-11-25T16:52:46.927Z,6.66
2022-11-25T16:55:14.862Z,6.56
2022-11-25T16:57:44.081Z,6.57
2022-11-25T17:00:16.997Z,6.59
2022-11-25T17:02:45.949Z,6.52
2022-11-25T17:05:19.008Z,6.52
2022-11-25T17:07:46.964Z,6.49
2022-11-25T17:10:14.905Z,6.44
2022-11-25T17:12:44.148Z,6.38
2022-11-25T17:15:16.777Z,6.34
2022-11-25T17:17:47.572Z,6.26
2022-11-25T17:20:21.735Z,6.34
2022-11-25T17:22:50.088Z,6.21
2022-11-25T17:25:18.097Z,6.20
2022-11-25T17:27:46.427Z,6.35
2022-11-25T17:30:18.745Z,6.10
2022-11-25T17:32:46.988Z,6.15
2022-11-25T17:35:21.171Z,6.11
2022-11-25T17:37:49.554Z,6.00
2022-11-25T17:40:17.734Z,6.16
2022-11-25T17:42:48.294Z,6.32
2022-11-25T17:45:18.473Z,6.33
2022-11-25T17:47:46.604Z,6.34
2022-11-25T17:50:18.231Z,6.29
2022-11-25T17:52:47.403Z,6.44
2022-11-25T17:55:19.375Z,6.52
2022-11-25T17:57:47.418Z,6.57
2022-11-25T18:00:17.752Z,6.58
2022-11-25T18:02:46.010Z,6.48
2022-11-25T18:05:16.338Z,6.42
2022-11-25T18:07:44.993Z,6.66
2022-11-25T18:10:16.089Z,6.61
2022-11-25T18:12:45.897Z,7.00
2022-11-25T18:15:17.237Z,7.08
2022-11-25T18:17:45.279Z,7.15
2022-11-25T18:20:17.313Z,7.25
2022-11-25T18:22:45.384Z,7.31
2022-11-25T18:25:19.812Z,7.31
2022-11-25T18:27:49.194Z,7.31
2022-11-25T18:30:19.991Z,7.37
2022-11-25T18:32:48.194Z,7.37
2022-11-25T18:35:18.208Z,7.40
2022-11-25T18:37:46.287Z,7.39
2022-11-25T18:40:15.746Z,7.46
2022-11-25T18:42:48.137Z,7.47
2022-11-25T18:45:18.326Z,7.44
2022-11-25T18:47:46.234Z,7.48
2022-11-25T18:50:16.144Z,7.46
2022-11-25T18:52:44.598Z,7.46
2022-11-25T18:55:14.239Z,7.52
2022-11-25T18:57:45.721Z,7.50
2022-11-25T19:00:31.761Z,7.46
2022-11-25T19:03:00.877Z,7.51
2022-11-25T19:05:31.518Z,7.51
2022-11-25T19:07:59.406Z,7.53
2022-11-25T19:10:30.872Z,7.50
2022-11-25T19:13:04.439Z,7.56
2022-11-25T19:15:33.760Z,7.58
2022-11-25T19:18:03.560Z,7.64
2022-11-25T19:20:32.366Z,7.62
2022-11-25T19:23:03.720Z,7.64
2022-11-25T19:25:31.560Z,7.58
2022-11-25T19:28:02.240Z,7.54
2022-11-25T19:30:33.239Z,7.58
2022-11-25T19:33:03.201Z,7.48
2022-11-25T19:35:34.468Z,7.12
2022-11-25T19:38:02.217Z,7.12
2022-11-25T19:40:33.529Z,6.92
2022-11-25T19:43:08.309Z,6.82
2022-11-25T19:45:37.203Z,6.75
2022-11-25T19:48:08.225Z,6.80
2022-11-25T19:50:39.885Z,6.74
2022-11-25T19:53:13.278Z,6.79
2022-11-25T19:55:41.040Z,6.81
2022-11-25T19:58:10.723Z,6.78
2022-11-25T20:00:38.807Z,6.72
2022-11-25T20:03:16.525Z,6.82
2022-11-25T20:05:44.499Z,6.79
2022-11-25T20:08:18.969Z,6.86
2022-11-25T20:10:46.964Z,6.91
2022-11-25T20:13:16.166Z,6.93
2022-11-25T20:15:45.237Z,6.91
2022-11-25T20:18:18.346Z,6.90
2022-11-25T20:20:48.511Z,6.88
2022-11-25T20:23:27.142Z,6.85
2022-11-25T20:25:55.252Z,6.94
2022-11-25T20:28:27.921Z,6.96
2022-11-25T20:30:57.782Z,6.95
2022-11-25T20:33:25.734Z,6.98
2022-11-25T20:36:05.314Z,7.00
2022-11-25T20:38:35.323Z,6.99
2022-11-25T20:41:04.263Z,7.10
2022-11-25T20:43:36.648Z,7.11
2022-11-25T20:46:04.495Z,7.11
2022-11-25T20:48:34.841Z,7.09
2022-11-25T20:51:03.845Z,7.14
2022-11-25T20:53:32.381Z,7.28
2022-11-25T20:56:01.083Z,7.33
2022-11-25T20:58:30.552Z,7.29
2022-11-25T21:01:00.259Z,7.28
2022-11-25T21:03:28.495Z,7.41
2022-11-25T21:05:58.037Z,7.46
2022-11-25T21:08:30.086Z,7.43
2022-11-25T21:10:59.617Z,7.37
2022-11-25T21:13:29.654Z,7.42
2022-11-25T21:15:59.185Z,7.31
2022-11-25T21:18:26.994Z,7.37
2022-11-25T21:20:57.928Z,7.37
2022-11-25T21:23:28.952Z,7.39
2022-11-25T21:26:04.506Z,7.40
2022-11-25T21:28:32.866Z,7.58
2022-11-25T21:31:04.808Z,7.50
2022-11-25T21:33:35.077Z,7.46
2022-11-25T21:36:03.420Z,7.45
2022-11-25T21:38:31.215Z,7.30
2022-11-25T21:40:59.592Z,7.42
2022-11-25T21:43:29.387Z,7.44
2022-11-25T21:46:03.697Z,7.43
2022-11-25T21:48:32.286Z,7.42
2022-11-25T21:51:00.305Z,7.36
2022-11-25T21:53:30.067Z,7.44
2022-11-25T21:55:59.748Z,7.44
2022-11-25T21:58:29.844Z,7.39
2022-11-25T22:00:59.656Z,7.41
2022-11-25T22:03:31.905Z,7.39
2022-11-25T22:05:59.625Z,7.41
2022-11-25T22:08:27.353Z,7.40
2022-11-25T22:10:56.892Z,7.40
2022-11-25T22:13:31.569Z,7.41
2022-11-25T22:16:00.363Z,7.39
2022-11-25T22:18:32.457Z,7.36
2022-11-25T22:21:00.089Z,7.38
2022-11-25T22:23:28.369Z,7.42
2022-11-25T22:25:56.442Z,7.36
2022-11-25T22:28:27.281Z,7.39
2022-11-25T22:30:57.636Z,7.35
2022-11-25T22:33:30.603Z,7.27
2022-11-25T22:35:58.610Z,7.18
2022-11-25T22:38:26.310Z,7.13
2022-11-25T22:40:57.767Z,7.07
2022-11-25T22:43:30.954Z,6.93
2022-11-25T22:45:58.796Z,6.90
2022-11-25T22:48:32.486Z,7.04
2022-11-25T22:51:00.485Z,7.05
2022-11-25T22:53:28.556Z,6.94
2022-11-25T22:55:58.447Z,6.79
2022-11-25T22:58:28.102Z,6.56
2022-11-25T23:00:57.307Z,6.41
2022-11-25T23:03:29.116Z,6.40
2022-11-25T23:05:58.573Z,6.32
2022-11-25T23:08:28.661Z,6.30
2022-11-25T23:10:57.139Z,6.23
2022-11-25T23:13:25.243Z,6.27
2022-11-25T23:15:55.103Z,6.28
2022-11-25T23:18:28.060Z,6.28
2022-11-25T23:20:56.842Z,6.21
2022-11-25T23:23:28.073Z,6.11
2022-11-25T23:25:56.610Z,6.08
2022-11-25T23:28:24.460Z,6.01
2022-11-25T23:30:54.601Z,6.00
2022-11-25T23:33:29.851Z,5.91
2022-11-25T23:36:00.779Z,5.93
2022-11-25T23:38:31.723Z,5.91
2022-11-25T23:40:59.497Z,5.84
2022-11-25T23:43:27.769Z,5.88
2022-11-25T23:45:57.557Z,5.90
2022-11-25T23:48:28.929Z,5.91
2022-11-25T23:50:59.262Z,5.81
2022-11-25T23:53:31.248Z,5.80
2022-11-25T23:56:00.582Z,5.78
2022-11-25T23:58:28.554Z,5.68
